sensor_id;sensor_type;location;lat;lon;timestamp;P1;durP1;ratioP1;P2;durP2;ratioP2
62711;SDS011;48772;55.586;37.730;2024-03-25T00:01:43;6.82;;;4.00;;
62711;SDS011;48772;55.586;37.730;2024-03-25T00:04:09;3.08;;;2.78;;
62711;SDS011;48772;55.586;37.730;2024-03-25T00:06:35;2.22;;;1.88;;
62711;SDS011;48772;55.586;37.730;2024-03-25T00:09:01;1.52;;;1.42;;
62711;SDS011;48772;55.586;37.730;2024-03-25T00:11:27;2.38;;;1.58;;
62711;SDS011;48772;55.586;37.730;2024-03-25T00:13:53;1.73;;;1.60;;
62711;SDS011;48772;55.586;37.730;2024-03-25T00:16:19;1.30;;;1.20;;
62711;SDS011;48772;55.586;37.730;2024-03-25T00:18:45;1.10;;;1.05;;
62711;SDS011;48772;55.586;37.730;2024-03-25T00:21:10;2.10;;;1.90;;
62711;SDS011;48772;55.586;37.730;2024-03-25T00:23:36;1.45;;;1.30;;
62711;SDS011;48772;55.586;37.730;2024-03-25T00:26:02;0.70;;;0.70;;
62711;SDS011;48772;55.586;37.730;2024-03-25T00:28:28;0.70;;;0.70;;
62711;SDS011;48772;55.586;37.730;2024-03-25T00:30:53;2.47;;;0.77;;
62711;SDS011;48772;55.586;37.730;2024-03-25T00:33:19;0.70;;;0.70;;
62711;SDS011;48772;55.586;37.730;2024-03-25T00:35:45;0.68;;;0.68;;
62711;SDS011;48772;55.586;37.730;2024-03-25T00:38:11;0.70;;;0.70;;
62711;SDS011;48772;55.586;37.730;2024-03-25T00:40:37;0.80;;;0.80;;
62711;SDS011;48772;55.586;37.730;2024-03-25T00:43:03;0.60;;;0.60;;
62711;SDS011;48772;55.586;37.730;2024-03-25T00:45:29;0.50;;;0.50;;
62711;SDS011;48772;55.586;37.730;2024-03-25T00:47:56;1.10;;;0.90;;
62711;SDS011;48772;55.586;37.730;2024-03-25T00:50:22;0.70;;;0.60;;
62711;SDS011;48772;55.586;37.730;2024-03-25T00:52:48;1.15;;;0.77;;
62711;SDS011;48772;55.586;37.730;2024-03-25T00:55:14;0.70;;;0.70;;
62711;SDS011;48772;55.586;37.730;2024-03-25T00:57:39;0.60;;;0.60;;
62711;SDS011;48772;55.586;37.730;2024-03-25T01:00:05;0.60;;;0.60;;
62711;SDS011;48772;55.586;37.730;2024-03-25T01:02:32;0.70;;;0.70;;
62711;SDS011;48772;55.586;37.730;2024-03-25T01:04:58;0.60;;;0.60;;
62711;SDS011;48772;55.586;37.730;2024-03-25T01:07:25;0.93;;;0.73;;
62711;SDS011;48772;55.586;37.730;2024-03-25T01:09:51;0.80;;;0.80;;
62711;SDS011;48772;55.586;37.730;2024-03-25T01:12:17;0.70;;;0.70;;
62711;SDS011;48772;55.586;37.730;2024-03-25T01:14:42;0.63;;;0.50;;
62711;SDS011;48772;55.586;37.730;2024-03-25T01:17:08;0.50;;;0.50;;
62711;SDS011;48772;55.586;37.730;2024-03-25T01:19:34;0.77;;;0.70;;
62711;SDS011;48772;55.586;37.730;2024-03-25T01:22:00;0.50;;;0.50;;
62711;SDS011;48772;55.586;37.730;2024-03-25T01:24:25;0.73;;;0.60;;
62711;SDS011;48772;55.586;37.730;2024-03-25T01:26:51;0.50;;;0.50;;
62711;SDS011;48772;55.586;37.730;2024-03-25T01:29:17;0.60;;;0.60;;
62711;SDS011;48772;55.586;37.730;2024-03-25T01:31:44;0.60;;;0.60;;
62711;SDS011;48772;55.586;37.730;2024-03-25T01:34:10;0.80;;;0.55;;
62711;SDS011;48772;55.586;37.730;2024-03-25T01:36:36;0.60;;;0.60;;
62711;SDS011;48772;55.586;37.730;2024-03-25T01:39:02;0.85;;;0.60;;
62711;SDS011;48772;55.586;37.730;2024-03-25T01:41:30;0.50;;;0.50;;
62711;SDS011;48772;55.586;37.730;2024-03-25T01:43:56;0.30;;;0.30;;
62711;SDS011;48772;55.586;37.730;2024-03-25T01:46:22;0.80;;;0.80;;
62711;SDS011;48772;55.586;37.730;2024-03-25T01:48:48;0.50;;;0.50;;
62711;SDS011;48772;55.586;37.730;2024-03-25T01:51:17;0.70;;;0.70;;
62711;SDS011;48772;55.586;37.730;2024-03-25T01:53:46;1.27;;;0.90;;
62711;SDS011;48772;55.586;37.730;2024-03-25T01:56:13;0.63;;;0.63;;
62711;SDS011;48772;55.586;37.730;2024-03-25T01:58:39;0.70;;;0.70;;
62711;SDS011;48772;55.586;37.730;2024-03-25T02:01:05;0.50;;;0.50;;
62711;SDS011;48772;55.586;37.730;2024-03-25T02:03:33;0.70;;;0.70;;
62711;SDS011;48772;55.586;37.730;2024-03-25T02:06:01;0.63;;;0.63;;
62711;SDS011;48772;55.586;37.730;2024-03-25T02:08:31;0.70;;;0.70;;
62711;SDS011;48772;55.586;37.730;2024-03-25T02:10:58;0.60;;;0.60;;
62711;SDS011;48772;55.586;37.730;2024-03-25T02:13:25;0.45;;;0.45;;
62711;SDS011;48772;55.586;37.730;2024-03-25T02:15:51;0.55;;;0.55;;
62711;SDS011;48772;55.586;37.730;2024-03-25T02:18:18;0.43;;;0.43;;
62711;SDS011;48772;55.586;37.730;2024-03-25T02:20:44;0.77;;;0.77;;
62711;SDS011;48772;55.586;37.730;2024-03-25T02:23:11;0.88;;;0.68;;
62711;SDS011;48772;55.586;37.730;2024-03-25T02:25:38;0.70;;;0.70;;
62711;SDS011;48772;55.586;37.730;2024-03-25T02:28:06;0.47;;;0.45;;
62711;SDS011;48772;55.586;37.730;2024-03-25T02:30:32;1.13;;;0.80;;
62711;SDS011;48772;55.586;37.730;2024-03-25T02:32:58;5.07;;;0.70;;
62711;SDS011;48772;55.586;37.730;2024-03-25T02:35:25;0.70;;;0.70;;
62711;SDS011;48772;55.586;37.730;2024-03-25T02:37:52;1.67;;;0.98;;
62711;SDS011;48772;55.586;37.730;2024-03-25T02:40:19;0.57;;;0.50;;
62711;SDS011;48772;55.586;37.730;2024-03-25T02:42:46;1.38;;;0.80;;
62711;SDS011;48772;55.586;37.730;2024-03-25T02:45:12;0.50;;;0.50;;
62711;SDS011;48772;55.586;37.730;2024-03-25T02:47:38;0.65;;;0.65;;
62711;SDS011;48772;55.586;37.730;2024-03-25T02:50:04;0.90;;;0.90;;
62711;SDS011;48772;55.586;37.730;2024-03-25T02:52:31;1.23;;;0.70;;
62711;SDS011;48772;55.586;37.730;2024-03-25T02:54:56;1.25;;;0.77;;
62711;SDS011;48772;55.586;37.730;2024-03-25T02:57:23;5.88;;;1.60;;
62711;SDS011;48772;55.586;37.730;2024-03-25T02:59:49;2.55;;;1.25;;
62711;SDS011;48772;55.586;37.730;2024-03-25T03:02:15;0.68;;;0.68;;
62711;SDS011;48772;55.586;37.730;2024-03-25T03:04:41;1.05;;;0.80;;
62711;SDS011;48772;55.586;37.730;2024-03-25T03:07:06;0.80;;;0.80;;
62711;SDS011;48772;55.586;37.730;2024-03-25T03:09:32;0.52;;;0.52;;
62711;SDS011;48772;55.586;37.730;2024-03-25T03:11:58;1.63;;;0.77;;
62711;SDS011;48772;55.586;37.730;2024-03-25T03:14:24;0.70;;;0.70;;
62711;SDS011;48772;55.586;37.730;2024-03-25T03:16:49;0.80;;;0.80;;
62711;SDS011;48772;55.586;37.730;2024-03-25T03:19:20;0.77;;;0.77;;
62711;SDS011;48772;55.586;37.730;2024-03-25T03:21:46;1.38;;;0.77;;
62711;SDS011;48772;55.586;37.730;2024-03-25T03:24:12;1.63;;;0.60;;
62711;SDS011;48772;55.586;37.730;2024-03-25T03:26:38;0.70;;;0.70;;
62711;SDS011;48772;55.586;37.730;2024-03-25T03:29:04;0.80;;;0.80;;
62711;SDS011;48772;55.586;37.730;2024-03-25T03:31:29;0.93;;;0.88;;
62711;SDS011;48772;55.586;37.730;2024-03-25T03:33:55;0.80;;;0.80;;
62711;SDS011;48772;55.586;37.730;2024-03-25T03:36:22;0.77;;;0.77;;
62711;SDS011;48772;55.586;37.730;2024-03-25T03:38:51;0.70;;;0.70;;
62711;SDS011;48772;55.586;37.730;2024-03-25T03:41:17;2.55;;;0.70;;
62711;SDS011;48772;55.586;37.730;2024-03-25T03:43:44;0.60;;;0.60;;
62711;SDS011;48772;55.586;37.730;2024-03-25T03:46:10;0.80;;;0.80;;
62711;SDS011;48772;55.586;37.730;2024-03-25T03:48:36;1.45;;;0.75;;
62711;SDS011;48772;55.586;37.730;2024-03-25T03:51:06;0.80;;;0.80;;
62711;SDS011;48772;55.586;37.730;2024-03-25T03:53:34;2.65;;;1.10;;
62711;SDS011;48772;55.586;37.730;2024-03-25T03:56:03;0.90;;;0.90;;
62711;SDS011;48772;55.586;37.730;2024-03-25T03:58:33;0.90;;;0.90;;
62711;SDS011;48772;55.586;37.730;2024-03-25T04:01:00;0.98;;;0.90;;
62711;SDS011;48772;55.586;37.730;2024-03-25T04:03:26;0.80;;;0.80;;
62711;SDS011;48772;55.586;37.730;2024-03-25T04:05:52;1.38;;;0.90;;
62711;SDS011;48772;55.586;37.730;2024-03-25T04:08:18;0.70;;;0.70;;
62711;SDS011;48772;55.586;37.730;2024-03-25T04:10:44;0.90;;;0.90;;
62711;SDS011;48772;55.586;37.730;2024-03-25T04:13:11;2.78;;;0.85;;
62711;SDS011;48772;55.586;37.730;2024-03-25T04:15:39;1.08;;;0.73;;
62711;SDS011;48772;55.586;37.730;2024-03-25T04:18:06;3.55;;;0.80;;
62711;SDS011;48772;55.586;37.730;2024-03-25T04:20:36;1.00;;;0.70;;
62711;SDS011;48772;55.586;37.730;2024-03-25T04:23:06;0.98;;;0.90;;
62711;SDS011;48772;55.586;37.730;2024-03-25T04:25:33;1.42;;;0.80;;
62711;SDS011;48772;55.586;37.730;2024-03-25T04:28:03;0.70;;;0.70;;
62711;SDS011;48772;55.586;37.730;2024-03-25T04:30:31;1.70;;;0.77;;
62711;SDS011;48772;55.586;37.730;2024-03-25T04:32:58;0.80;;;0.80;;
62711;SDS011;48772;55.586;37.730;2024-03-25T04:35:24;2.00;;;0.80;;
62711;SDS011;48772;55.586;37.730;2024-03-25T04:37:50;0.80;;;0.77;;
62711;SDS011;48772;55.586;37.730;2024-03-25T04:40:16;0.82;;;0.75;;
62711;SDS011;48772;55.586;37.730;2024-03-25T04:42:44;2.97;;;1.10;;
62711;SDS011;48772;55.586;37.730;2024-03-25T04:45:10;3.55;;;1.10;;
62711;SDS011;48772;55.586;37.730;2024-03-25T04:47:37;3.33;;;1.15;;
62711;SDS011;48772;55.586;37.730;2024-03-25T04:50:04;2.15;;;1.02;;
62711;SDS011;48772;55.586;37.730;2024-03-25T04:52:31;2.45;;;1.15;;
62711;SDS011;48772;55.586;37.730;2024-03-25T04:54:57;1.48;;;1.38;;
62711;SDS011;48772;55.586;37.730;2024-03-25T04:57:24;1.17;;;1.00;;
62711;SDS011;48772;55.586;37.730;2024-03-25T04:59:50;1.58;;;0.85;;
62711;SDS011;48772;55.586;37.730;2024-03-25T05:02:16;2.10;;;1.17;;
62711;SDS011;48772;55.586;37.730;2024-03-25T05:04:42;2.20;;;1.10;;
62711;SDS011;48772;55.586;37.730;2024-03-25T05:07:08;2.55;;;0.98;;
62711;SDS011;48772;55.586;37.730;2024-03-25T05:09:34;2.28;;;0.98;;
62711;SDS011;48772;55.586;37.730;2024-03-25T05:12:00;3.28;;;1.10;;
62711;SDS011;48772;55.586;37.730;2024-03-25T05:14:25;3.83;;;1.05;;
62711;SDS011;48772;55.586;37.730;2024-03-25T05:16:51;2.20;;;1.10;;
62711;SDS011;48772;55.586;37.730;2024-03-25T05:19:18;0.98;;;0.90;;
62711;SDS011;48772;55.586;37.730;2024-03-25T05:21:44;1.30;;;1.20;;
62711;SDS011;48772;55.586;37.730;2024-03-25T05:24:10;1.42;;;1.30;;
62711;SDS011;48772;55.586;37.730;2024-03-25T05:26:36;1.20;;;1.10;;
62711;SDS011;48772;55.586;37.730;2024-03-25T05:29:02;1.90;;;1.20;;
62711;SDS011;48772;55.586;37.730;2024-03-25T05:31:28;1.85;;;1.25;;
62711;SDS011;48772;55.586;37.730;2024-03-25T05:33:54;1.95;;;0.80;;
62711;SDS011;48772;55.586;37.730;2024-03-25T05:36:19;1.17;;;1.08;;
62711;SDS011;48772;55.586;37.730;2024-03-25T05:38:45;13.77;;;1.27;;
62711;SDS011;48772;55.586;37.730;2024-03-25T05:41:11;1.63;;;1.13;;
62711;SDS011;48772;55.586;37.730;2024-03-25T05:43:37;1.65;;;1.23;;
62711;SDS011;48772;55.586;37.730;2024-03-25T05:46:04;1.30;;;1.20;;
62711;SDS011;48772;55.586;37.730;2024-03-25T05:48:30;3.80;;;1.45;;
62711;SDS011;48772;55.586;37.730;2024-03-25T05:51:01;3.60;;;1.33;;
62711;SDS011;48772;55.586;37.730;2024-03-25T05:53:28;1.45;;;1.10;;
62711;SDS011;48772;55.586;37.730;2024-03-25T05:55:55;0.93;;;0.88;;
62711;SDS011;48772;55.586;37.730;2024-03-25T05:58:22;2.05;;;1.20;;
62711;SDS011;48772;55.586;37.730;2024-03-25T06:00:48;1.50;;;1.40;;
62711;SDS011;48772;55.586;37.730;2024-03-25T06:03:15;2.03;;;1.45;;
62711;SDS011;48772;55.586;37.730;2024-03-25T06:05:42;1.80;;;1.42;;
62711;SDS011;48772;55.586;37.730;2024-03-25T06:08:08;3.03;;;1.30;;
62711;SDS011;48772;55.586;37.730;2024-03-25T06:10:44;2.33;;;1.00;;
62711;SDS011;48772;55.586;37.730;2024-03-25T06:13:10;1.30;;;1.20;;
62711;SDS011;48772;55.586;37.730;2024-03-25T06:15:36;1.50;;;1.30;;
62711;SDS011;48772;55.586;37.730;2024-03-25T06:18:02;1.50;;;1.40;;
62711;SDS011;48772;55.586;37.730;2024-03-25T06:20:28;2.35;;;1.50;;
62711;SDS011;48772;55.586;37.730;2024-03-25T06:22:54;1.70;;;1.60;;
62711;SDS011;48772;55.586;37.730;2024-03-25T06:25:20;1.42;;;1.30;;
62711;SDS011;48772;55.586;37.730;2024-03-25T06:27:46;2.10;;;1.50;;
62711;SDS011;48772;55.586;37.730;2024-03-25T06:30:13;1.60;;;1.50;;
62711;SDS011;48772;55.586;37.730;2024-03-25T06:32:57;3.15;;;1.45;;
62711;SDS011;48772;55.586;37.730;2024-03-25T06:35:42;3.08;;;1.70;;
62711;SDS011;48772;55.586;37.730;2024-03-25T06:38:09;4.07;;;1.50;;
62711;SDS011;48772;55.586;37.730;2024-03-25T06:40:37;3.50;;;1.48;;
62711;SDS011;48772;55.586;37.730;2024-03-25T06:43:03;1.85;;;1.60;;
62711;SDS011;48772;55.586;37.730;2024-03-25T06:45:30;3.58;;;1.83;;
62711;SDS011;48772;55.586;37.730;2024-03-25T06:47:56;4.30;;;1.80;;
62711;SDS011;48772;55.586;37.730;2024-03-25T06:50:23;11.55;;;2.50;;
62711;SDS011;48772;55.586;37.730;2024-03-25T06:52:50;1.52;;;1.40;;
62711;SDS011;48772;55.586;37.730;2024-03-25T06:55:16;3.10;;;1.33;;
62711;SDS011;48772;55.586;37.730;2024-03-25T06:57:44;1.55;;;1.40;;
62711;SDS011;48772;55.586;37.730;2024-03-25T07:00:10;3.15;;;1.50;;
62711;SDS011;48772;55.586;37.730;2024-03-25T07:02:39;2.00;;;1.35;;
62711;SDS011;48772;55.586;37.730;2024-03-25T07:05:07;3.42;;;1.50;;
62711;SDS011;48772;55.586;37.730;2024-03-25T07:07:34;1.30;;;1.20;;
62711;SDS011;48772;55.586;37.730;2024-03-25T07:10:01;3.28;;;1.52;;
62711;SDS011;48772;55.586;37.730;2024-03-25T07:12:31;3.67;;;1.52;;
62711;SDS011;48772;55.586;37.730;2024-03-25T07:14:57;3.17;;;1.55;;
62711;SDS011;48772;55.586;37.730;2024-03-25T07:17:23;3.42;;;1.65;;
62711;SDS011;48772;55.586;37.730;2024-03-25T07:19:51;5.43;;;1.92;;
62711;SDS011;48772;55.586;37.730;2024-03-25T07:22:18;1.70;;;1.60;;
62711;SDS011;48772;55.586;37.730;2024-03-25T07:24:44;1.67;;;1.45;;
62711;SDS011;48772;55.586;37.730;2024-03-25T07:27:11;2.80;;;1.80;;
62711;SDS011;48772;55.586;37.730;2024-03-25T07:29:37;4.32;;;1.70;;
62711;SDS011;48772;55.586;37.730;2024-03-25T07:32:03;5.57;;;1.50;;
62711;SDS011;48772;55.586;37.730;2024-03-25T07:34:29;2.78;;;1.70;;
62711;SDS011;48772;55.586;37.730;2024-03-25T07:36:55;2.50;;;1.70;;
62711;SDS011;48772;55.586;37.730;2024-03-25T07:39:21;5.18;;;1.77;;
62711;SDS011;48772;55.586;37.730;2024-03-25T07:41:49;2.10;;;1.90;;
62711;SDS011;48772;55.586;37.730;2024-03-25T07:44:16;2.88;;;2.38;;
62711;SDS011;48772;55.586;37.730;2024-03-25T07:46:41;4.40;;;2.42;;
62711;SDS011;48772;55.586;37.730;2024-03-25T07:49:07;4.43;;;2.67;;
62711;SDS011;48772;55.586;37.730;2024-03-25T07:51:34;6.13;;;2.35;;
62711;SDS011;48772;55.586;37.730;2024-03-25T07:54:01;2.97;;;2.30;;
62711;SDS011;48772;55.586;37.730;2024-03-25T07:56:29;5.72;;;2.35;;
62711;SDS011;48772;55.586;37.730;2024-03-25T07:58:55;4.53;;;1.95;;
62711;SDS011;48772;55.586;37.730;2024-03-25T08:01:21;6.72;;;2.25;;
62711;SDS011;48772;55.586;37.730;2024-03-25T08:03:47;5.93;;;1.90;;
62711;SDS011;48772;55.586;37.730;2024-03-25T08:06:13;5.35;;;2.00;;
62711;SDS011;48772;55.586;37.730;2024-03-25T08:08:39;2.65;;;1.85;;
62711;SDS011;48772;55.586;37.730;2024-03-25T08:11:05;3.88;;;2.10;;
62711;SDS011;48772;55.586;37.730;2024-03-25T08:13:31;2.38;;;1.73;;
62711;SDS011;48772;55.586;37.730;2024-03-25T08:15:56;11.00;;;1.88;;
62711;SDS011;48772;55.586;37.730;2024-03-25T08:18:22;4.07;;;2.05;;
62711;SDS011;48772;55.586;37.730;2024-03-25T08:20:48;3.08;;;1.70;;
62711;SDS011;48772;55.586;37.730;2024-03-25T08:23:14;4.55;;;2.15;;
62711;SDS011;48772;55.586;37.730;2024-03-25T08:25:40;5.53;;;2.22;;
62711;SDS011;48772;55.586;37.730;2024-03-25T08:28:06;4.93;;;1.70;;
62711;SDS011;48772;55.586;37.730;2024-03-25T08:30:31;2.08;;;1.77;;
62711;SDS011;48772;55.586;37.730;2024-03-25T08:32:57;2.45;;;1.35;;
62711;SDS011;48772;55.586;37.730;2024-03-25T08:35:23;3.42;;;1.52;;
62711;SDS011;48772;55.586;37.730;2024-03-25T08:37:49;2.53;;;1.52;;
62711;SDS011;48772;55.586;37.730;2024-03-25T08:40:15;3.30;;;1.67;;
62711;SDS011;48772;55.586;37.730;2024-03-25T08:42:42;5.53;;;1.70;;
62711;SDS011;48772;55.586;37.730;2024-03-25T08:45:07;3.53;;;1.45;;
62711;SDS011;48772;55.586;37.730;2024-03-25T08:47:33;7.55;;;2.10;;
62711;SDS011;48772;55.586;37.730;2024-03-25T08:49:59;5.03;;;1.88;;
62711;SDS011;48772;55.586;37.730;2024-03-25T08:52:26;4.13;;;1.80;;
62711;SDS011;48772;55.586;37.730;2024-03-25T08:54:51;3.75;;;1.92;;
62711;SDS011;48772;55.586;37.730;2024-03-25T08:57:17;5.43;;;2.00;;
62711;SDS011;48772;55.586;37.730;2024-03-25T08:59:43;3.60;;;1.75;;
62711;SDS011;48772;55.586;37.730;2024-03-25T09:02:09;2.25;;;1.90;;
62711;SDS011;48772;55.586;37.730;2024-03-25T09:04:35;3.20;;;1.60;;
62711;SDS011;48772;55.586;37.730;2024-03-25T09:07:01;4.22;;;1.75;;
62711;SDS011;48772;55.586;37.730;2024-03-25T09:09:28;4.15;;;1.70;;
62711;SDS011;48772;55.586;37.730;2024-03-25T09:12:12;6.47;;;1.85;;
62711;SDS011;48772;55.586;37.730;2024-03-25T09:14:38;4.82;;;1.98;;
62711;SDS011;48772;55.586;37.730;2024-03-25T09:17:04;2.45;;;1.30;;
62711;SDS011;48772;55.586;37.730;2024-03-25T09:19:30;3.05;;;1.50;;
62711;SDS011;48772;55.586;37.730;2024-03-25T09:21:56;3.25;;;1.60;;
62711;SDS011;48772;55.586;37.730;2024-03-25T09:24:22;2.42;;;1.50;;
62711;SDS011;48772;55.586;37.730;2024-03-25T09:26:51;5.22;;;1.90;;
62711;SDS011;48772;55.586;37.730;2024-03-25T09:29:17;4.93;;;2.08;;
62711;SDS011;48772;55.586;37.730;2024-03-25T09:31:43;2.78;;;2.10;;
62711;SDS011;48772;55.586;37.730;2024-03-25T09:34:09;3.47;;;1.58;;
62711;SDS011;48772;55.586;37.730;2024-03-25T09:36:35;5.47;;;1.55;;
62711;SDS011;48772;55.586;37.730;2024-03-25T09:39:02;3.22;;;1.60;;
62711;SDS011;48772;55.586;37.730;2024-03-25T09:41:30;2.65;;;1.80;;
62711;SDS011;48772;55.586;37.730;2024-03-25T09:44:00;2.45;;;1.80;;
62711;SDS011;48772;55.586;37.730;2024-03-25T09:46:29;3.97;;;1.67;;
62711;SDS011;48772;55.586;37.730;2024-03-25T09:48:55;4.65;;;1.83;;
62711;SDS011;48772;55.586;37.730;2024-03-25T09:51:21;4.07;;;1.90;;
62711;SDS011;48772;55.586;37.730;2024-03-25T09:53:47;7.22;;;1.88;;
62711;SDS011;48772;55.586;37.730;2024-03-25T09:56:13;6.45;;;2.05;;
62711;SDS011;48772;55.586;37.730;2024-03-25T09:58:41;3.03;;;1.70;;
62711;SDS011;48772;55.586;37.730;2024-03-25T10:01:09;6.53;;;1.90;;
62711;SDS011;48772;55.586;37.730;2024-03-25T10:03:36;2.45;;;1.48;;
62711;SDS011;48772;55.586;37.730;2024-03-25T10:06:02;3.45;;;1.60;;
62711;SDS011;48772;55.586;37.730;2024-03-25T10:08:29;4.93;;;1.77;;
62711;SDS011;48772;55.586;37.730;2024-03-25T10:10:56;5.47;;;1.98;;
62711;SDS011;48772;55.586;37.730;2024-03-25T10:13:22;7.32;;;1.88;;
62711;SDS011;48772;55.586;37.730;2024-03-25T10:15:49;4.93;;;1.83;;
62711;SDS011;48772;55.586;37.730;2024-03-25T10:18:15;3.97;;;2.03;;
62711;SDS011;48772;55.586;37.730;2024-03-25T10:20:49;3.63;;;2.00;;
62711;SDS011;48772;55.586;37.730;2024-03-25T10:23:23;8.43;;;2.03;;
62711;SDS011;48772;55.586;37.730;2024-03-25T10:25:53;4.63;;;2.13;;
62711;SDS011;48772;55.586;37.730;2024-03-25T10:28:19;6.63;;;2.22;;
62711;SDS011;48772;55.586;37.730;2024-03-25T10:30:45;4.30;;;2.10;;
62711;SDS011;48772;55.586;37.730;2024-03-25T10:33:12;3.35;;;2.10;;
62711;SDS011;48772;55.586;37.730;2024-03-25T10:35:39;5.82;;;2.00;;
62711;SDS011;48772;55.586;37.730;2024-03-25T10:38:07;2.92;;;1.98;;
62711;SDS011;48772;55.586;37.730;2024-03-25T10:40:37;5.70;;;2.28;;
62711;SDS011;48772;55.586;37.730;2024-03-25T10:43:05;7.43;;;2.40;;
62711;SDS011;48772;55.586;37.730;2024-03-25T10:45:34;3.10;;;2.20;;
62711;SDS011;48772;55.586;37.730;2024-03-25T10:48:02;4.30;;;1.75;;
62711;SDS011;48772;55.586;37.730;2024-03-25T10:50:31;2.20;;;1.60;;
62711;SDS011;48772;55.586;37.730;2024-03-25T10:53:00;3.00;;;1.83;;
62711;SDS011;48772;55.586;37.730;2024-03-25T10:55:30;3.95;;;1.80;;
62711;SDS011;48772;55.586;37.730;2024-03-25T10:57:56;2.28;;;1.70;;
62711;SDS011;48772;55.586;37.730;2024-03-25T11:00:22;5.18;;;1.90;;
62711;SDS011;48772;55.586;37.730;2024-03-25T11:02:49;5.07;;;2.13;;
62711;SDS011;48772;55.586;37.730;2024-03-25T11:05:16;4.22;;;2.00;;
62711;SDS011;48772;55.586;37.730;2024-03-25T11:07:42;4.72;;;1.90;;
62711;SDS011;48772;55.586;37.730;2024-03-25T11:10:11;5.72;;;2.22;;
62711;SDS011;48772;55.586;37.730;2024-03-25T11:12:38;4.72;;;2.20;;
62711;SDS011;48772;55.586;37.730;2024-03-25T11:15:07;6.50;;;2.33;;
62711;SDS011;48772;55.586;37.730;2024-03-25T11:22:08;6.00;;;2.92;;
62711;SDS011;48772;55.586;37.730;2024-03-25T11:24:36;10.32;;;2.30;;
62711;SDS011;48772;55.586;37.730;2024-03-25T11:27:07;7.20;;;2.85;;
62711;SDS011;48772;55.586;37.730;2024-03-25T11:29:34;4.32;;;2.30;;
62711;SDS011;48772;55.586;37.730;2024-03-25T11:32:05;4.40;;;2.25;;
62711;SDS011;48772;55.586;37.730;2024-03-25T11:34:31;3.38;;;1.98;;
62711;SDS011;48772;55.586;37.730;2024-03-25T11:36:58;5.22;;;2.13;;
62711;SDS011;48772;55.586;37.730;2024-03-25T11:39:24;3.63;;;2.22;;
62711;SDS011;48772;55.586;37.730;2024-03-25T11:49:56;3.53;;;2.10;;
62711;SDS011;48772;55.586;37.730;2024-03-25T11:52:22;3.80;;;1.95;;
62711;SDS011;48772;55.586;37.730;2024-03-25T11:54:54;7.15;;;2.22;;
62711;SDS011;48772;55.586;37.730;2024-03-25T11:57:21;7.38;;;2.28;;
62711;SDS011;48772;55.586;37.730;2024-03-25T11:59:48;7.05;;;2.00;;
62711;SDS011;48772;55.586;37.730;2024-03-25T12:02:18;9.32;;;2.25;;
62711;SDS011;48772;55.586;37.730;2024-03-25T12:04:44;4.80;;;2.28;;
62711;SDS011;48772;55.586;37.730;2024-03-25T12:07:14;5.68;;;2.22;;
62711;SDS011;48772;55.586;37.730;2024-03-25T12:09:40;4.35;;;2.15;;
62711;SDS011;48772;55.586;37.730;2024-03-25T12:12:25;3.67;;;2.03;;
62711;SDS011;48772;55.586;37.730;2024-03-25T12:14:52;5.03;;;2.00;;
62711;SDS011;48772;55.586;37.730;2024-03-25T12:17:25;3.85;;;2.13;;
62711;SDS011;48772;55.586;37.730;2024-03-25T12:19:59;5.55;;;1.95;;
62711;SDS011;48772;55.586;37.730;2024-03-25T12:22:27;11.82;;;2.40;;
62711;SDS011;48772;55.586;37.730;2024-03-25T12:24:56;9.30;;;2.55;;
62711;SDS011;48772;55.586;37.730;2024-03-25T12:27:22;10.18;;;2.45;;
62711;SDS011;48772;55.586;37.730;2024-03-25T12:29:59;5.00;;;2.10;;
62711;SDS011;48772;55.586;37.730;2024-03-25T12:32:43;10.45;;;2.20;;
62711;SDS011;48772;55.586;37.730;2024-03-25T12:35:11;12.25;;;2.40;;
62711;SDS011;48772;55.586;37.730;2024-03-25T12:37:39;7.18;;;2.00;;
62711;SDS011;48772;55.586;37.730;2024-03-25T12:40:06;7.97;;;2.40;;
62711;SDS011;48772;55.586;37.730;2024-03-25T12:42:34;5.38;;;1.92;;
62711;SDS011;48772;55.586;37.730;2024-03-25T12:45:01;7.88;;;2.50;;
62711;SDS011;48772;55.586;37.730;2024-03-25T12:52:05;5.00;;;2.20;;
62711;SDS011;48772;55.586;37.730;2024-03-25T12:59:16;3.33;;;1.98;;
62711;SDS011;48772;55.586;37.730;2024-03-25T13:02:04;5.13;;;2.28;;
62711;SDS011;48772;55.586;37.730;2024-03-25T13:04:30;6.18;;;2.25;;
62711;SDS011;48772;55.586;37.730;2024-03-25T13:06:56;8.18;;;2.80;;
62711;SDS011;48772;55.586;37.730;2024-03-25T13:09:22;7.78;;;2.80;;
62711;SDS011;48772;55.586;37.730;2024-03-25T13:11:48;4.57;;;2.22;;
62711;SDS011;48772;55.586;37.730;2024-03-25T13:14:14;7.43;;;2.55;;
62711;SDS011;48772;55.586;37.730;2024-03-25T13:16:41;5.93;;;2.50;;
62711;SDS011;48772;55.586;37.730;2024-03-25T13:19:07;10.55;;;2.30;;
62711;SDS011;48772;55.586;37.730;2024-03-25T13:21:33;7.10;;;2.25;;
62711;SDS011;48772;55.586;37.730;2024-03-25T13:23:59;5.38;;;2.50;;
62711;SDS011;48772;55.586;37.730;2024-03-25T13:26:25;4.35;;;2.60;;
62711;SDS011;48772;55.586;37.730;2024-03-25T13:28:51;4.60;;;2.55;;
62711;SDS011;48772;55.586;37.730;2024-03-25T13:31:18;6.55;;;2.88;;
62711;SDS011;48772;55.586;37.730;2024-03-25T13:33:44;8.02;;;2.90;;
62711;SDS011;48772;55.586;37.730;2024-03-25T13:36:10;9.13;;;3.08;;
62711;SDS011;48772;55.586;37.730;2024-03-25T13:38:36;6.88;;;3.30;;
62711;SDS011;48772;55.586;37.730;2024-03-25T13:41:02;8.20;;;2.85;;
62711;SDS011;48772;55.586;37.730;2024-03-25T13:43:30;10.23;;;3.03;;
62711;SDS011;48772;55.586;37.730;2024-03-25T13:45:56;6.90;;;3.45;;
62711;SDS011;48772;55.586;37.730;2024-03-25T13:48:23;6.05;;;2.95;;
62711;SDS011;48772;55.586;37.730;2024-03-25T13:50:49;6.90;;;2.35;;
62711;SDS011;48772;55.586;37.730;2024-03-25T13:53:15;6.13;;;2.83;;
62711;SDS011;48772;55.586;37.730;2024-03-25T13:55:41;5.03;;;2.60;;
62711;SDS011;48772;55.586;37.730;2024-03-25T13:58:07;6.03;;;2.67;;
62711;SDS011;48772;55.586;37.730;2024-03-25T14:00:34;9.57;;;5.88;;
62711;SDS011;48772;55.586;37.730;2024-03-25T14:03:02;11.55;;;7.53;;
62711;SDS011;48772;55.586;37.730;2024-03-25T14:05:29;9.50;;;3.50;;
62711;SDS011;48772;55.586;37.730;2024-03-25T14:07:55;11.10;;;3.55;;
62711;SDS011;48772;55.586;37.730;2024-03-25T14:10:24;9.38;;;3.20;;
62711;SDS011;48772;55.586;37.730;2024-03-25T14:12:50;8.60;;;3.50;;
62711;SDS011;48772;55.586;37.730;2024-03-25T14:15:16;5.50;;;3.10;;
62711;SDS011;48772;55.586;37.730;2024-03-25T14:17:42;6.47;;;4.15;;
62711;SDS011;48772;55.586;37.730;2024-03-25T14:20:07;10.32;;;4.13;;
62711;SDS011;48772;55.586;37.730;2024-03-25T14:22:34;6.47;;;2.90;;
62711;SDS011;48772;55.586;37.730;2024-03-25T14:25:00;5.72;;;2.80;;
62711;SDS011;48772;55.586;37.730;2024-03-25T14:27:26;10.60;;;3.17;;
62711;SDS011;48772;55.586;37.730;2024-03-25T14:29:52;10.48;;;2.85;;
62711;SDS011;48772;55.586;37.730;2024-03-25T14:32:21;22.02;;;3.00;;
62711;SDS011;48772;55.586;37.730;2024-03-25T14:34:48;5.55;;;2.53;;
62711;SDS011;48772;55.586;37.730;2024-03-25T14:37:14;7.05;;;2.72;;
62711;SDS011;48772;55.586;37.730;2024-03-25T14:39:40;6.63;;;3.00;;
62711;SDS011;48772;55.586;37.730;2024-03-25T14:42:09;5.82;;;3.10;;
62711;SDS011;48772;55.586;37.730;2024-03-25T14:44:36;6.85;;;2.60;;
62711;SDS011;48772;55.586;37.730;2024-03-25T14:47:03;6.03;;;2.83;;
62711;SDS011;48772;55.586;37.730;2024-03-25T14:49:29;5.38;;;2.30;;
62711;SDS011;48772;55.586;37.730;2024-03-25T14:51:56;7.57;;;2.75;;
62711;SDS011;48772;55.586;37.730;2024-03-25T14:54:22;4.25;;;3.03;;